createdAt,value
2022-10-17T00:12:44.864Z,11.12
2022-10-17T00:21:17.037Z,11.07
2022-10-17T00:29:40.519Z,10.98
2022-10-17T00:38:03.649Z,10.88
2022-10-17T00:46:30.342Z,10.84
2022-10-17T00:54:57.829Z,10.90
2022-10-17T01:03:20.605Z,10.91
2022-10-17T01:12:18.718Z,10.80
2022-10-17T01:20:53.800Z,10.70
2022-10-17T01:29:44.480Z,10.54
2022-10-17T01:38:23.037Z,10.41
2022-10-17T01:46:51.549Z,10.34
2022-10-17T01:55:20.646Z,10.20
2022-10-17T02:03:46.949Z,10.15
2022-10-17T02:12:35.273Z,10.25
2022-10-17T02:21:06.442Z,10.26
2022-10-17T02:29:55.877Z,10.30
2022-10-17T02:38:20.288Z,10.28
2022-10-17T02:46:48.918Z,10.18
2022-10-17T02:55:33.536Z,10.08
2022-10-17T03:04:25.937Z,10.00
2022-10-17T03:12:48.992Z,10.00
2022-10-17T03:21:11.854Z,9.93
2022-10-17T03:29:35.157Z,9.98
2022-10-17T03:37:59.604Z,9.96
2022-10-17T03:46:23.058Z,9.83
2022-10-17T03:54:50.712Z,9.76
2022-10-17T04:03:17.200Z,9.74
2022-10-17T04:11:41.432Z,9.69
2022-10-17T04:20:05.546Z,9.66
2022-10-17T04:28:28.703Z,9.58
2022-10-17T04:36:52.009Z,9.53
2022-10-17T04:45:15.894Z,9.54
2022-10-17T04:53:41.064Z,9.55
2022-10-17T05:02:05.031Z,9.59
2022-10-17T05:10:29.013Z,9.63
2022-10-17T05:18:55.020Z,9.61
2022-10-17T05:27:18.062Z,9.54
2022-10-17T05:35:40.901Z,9.50
2022-10-17T05:44:05.590Z,9.57
2022-10-17T05:52:36.553Z,9.67
2022-10-17T06:01:09.363Z,9.80
2022-10-17T06:09:35.327Z,10.01
2022-10-17T06:17:58.891Z,10.29
2022-10-17T06:26:22.138Z,10.59
2022-10-17T06:34:45.179Z,10.96
2022-10-17T06:43:08.143Z,11.38
2022-10-17T06:51:51.864Z,11.74
2022-10-17T07:00:23.516Z,12.13
2022-10-17T07:08:51.128Z,13.08
2022-10-17T07:17:15.042Z,13.59
2022-10-17T07:25:40.303Z,14.20
2022-10-17T07:34:05.345Z,14.71
2022-10-17T07:42:28.819Z,15.37
2022-10-17T07:50:53.490Z,15.99
2022-10-17T07:59:19.819Z,15.96
2022-10-17T08:07:42.628Z,15.77
2022-10-17T08:16:09.298Z,15.94
2022-10-17T08:24:32.466Z,16.26
2022-10-17T08:32:56.537Z,16.57
2022-10-17T08:41:47.005Z,16.81
2022-10-17T08:50:33.319Z,16.95
2022-10-17T08:58:56.078Z,17.14
2022-10-17T09:07:19.000Z,17.27
2022-10-17T09:15:41.649Z,17.34
2022-10-17T09:24:15.910Z,17.42
2022-10-17T09:32:39.220Z,17.45
2022-10-17T09:41:02.879Z,17.50
2022-10-17T09:49:38.131Z,17.60
2022-10-17T09:58:03.826Z,17.78
2022-10-17T10:06:26.553Z,18.01
2022-10-17T10:14:53.372Z,18.19
2022-10-17T10:23:21.730Z,18.35
2022-10-17T10:31:44.712Z,18.57
2022-10-17T10:40:30.552Z,18.77
2022-10-17T10:48:55.499Z,18.92
2022-10-17T10:57:23.199Z,19.08
2022-10-17T11:05:55.015Z,19.16
2022-10-17T11:14:45.671Z,19.17
2022-10-17T11:23:24.505Z,19.18
2022-10-17T11:31:59.037Z,19.22
2022-10-17T11:40:34.300Z,19.34
2022-10-17T11:48:57.069Z,19.52
2022-10-17T11:57:51.730Z,19.70
2022-10-17T12:06:56.816Z,19.76
2022-10-17T12:15:27.915Z,19.78
2022-10-17T12:23:54.952Z,19.83
2022-10-17T12:32:17.847Z,19.98
2022-10-17T12:40:52.644Z,20.16
2022-10-17T12:49:47.212Z,20.26
2022-10-17T12:58:16.390Z,20.38
2022-10-17T13:06:48.542Z,20.45
2022-10-17T13:15:17.742Z,20.49
2022-10-17T13:23:40.515Z,20.49
2022-10-17T13:32:05.478Z,20.51
2022-10-17T13:40:44.579Z,20.52
2022-10-17T13:49:33.938Z,20.48
2022-10-17T13:57:57.540Z,20.40
2022-10-17T14:06:26.320Z,20.34
2022-10-17T14:15:10.843Z,20.18
2022-10-17T14:23:38.406Z,20.00
2022-10-17T14:32:08.971Z,19.87
2022-10-17T14:40:33.919Z,19.71
2022-10-17T14:49:23.187Z,19.48
2022-10-17T14:57:48.436Z,19.27
2022-10-17T15:06:28.370Z,19.07
2022-10-17T15:14:52.542Z,18.80
2022-10-17T15:23:15.435Z,18.49
2022-10-17T15:31:38.323Z,18.19
2022-10-17T15:40:01.179Z,17.95
2022-10-17T15:48:29.710Z,17.79
2022-10-17T15:56:54.966Z,17.62
2022-10-17T16:05:27.317Z,17.38
2022-10-17T16:13:54.689Z,17.17
2022-10-17T16:22:38.107Z,16.94
2022-10-17T16:31:00.854Z,16.72
2022-10-17T16:39:23.753Z,16.62
2022-10-17T16:47:47.670Z,16.58
2022-10-17T16:56:12.953Z,16.48
2022-10-17T17:04:35.795Z,16.30
2022-10-17T17:12:58.561Z,16.15
2022-10-17T17:21:21.259Z,16.01
2022-10-17T17:29:44.068Z,15.83
2022-10-17T17:38:07.570Z,15.65
2022-10-17T17:46:32.986Z,15.55
2022-10-17T17:54:58.136Z,15.48
2022-10-17T18:03:20.845Z,15.31
2022-10-17T18:11:43.739Z,15.10
2022-10-17T18:20:08.232Z,14.93
2022-10-17T18:28:34.607Z,14.82
2022-10-17T18:36:59.044Z,14.63
2022-10-17T18:45:22.030Z,14.41
2022-10-17T18:53:48.612Z,14.23
2022-10-17T19:02:13.144Z,14.12
2022-10-17T19:10:43.412Z,14.02
2022-10-17T19:19:13.399Z,13.90
2022-10-17T19:27:36.257Z,13.81
2022-10-17T19:36:02.142Z,13.79
2022-10-17T19:44:25.115Z,13.71
2022-10-17T19:52:49.154Z,13.64
2022-10-17T20:01:39.155Z,13.57
2022-10-17T20:10:02.589Z,13.43
2022-10-17T20:18:27.113Z,13.34
2022-10-17T20:26:53.328Z,13.32
2022-10-17T20:35:16.373Z,13.28
2022-10-17T20:43:39.424Z,13.26
2022-10-17T20:52:02.210Z,13.28
2022-10-17T21:00:25.582Z,13.25
2022-10-17T21:08:48.837Z,13.23
2022-10-17T21:17:11.746Z,13.27
2022-10-17T21:25:35.381Z,13.25
2022-10-17T21:34:02.021Z,13.15
2022-10-17T21:42:26.366Z,13.13
2022-10-17T21:50:58.691Z,13.19
2022-10-17T21:59:22.043Z,13.20
2022-10-17T22:07:45.091Z,13.13
2022-10-17T22:16:10.588Z,13.13
2022-10-17T22:24:33.336Z,13.17
2022-10-17T22:32:56.198Z,13.16
2022-10-17T22:41:18.962Z,13.07
2022-10-17T22:49:41.708Z,12.95
2022-10-17T22:58:04.655Z,12.83
2022-10-17T23:06:27.506Z,12.71
2022-10-17T23:14:50.311Z,12.59
2022-10-17T23:23:13.916Z,12.50
2022-10-17T23:31:36.828Z,12.37
2022-10-17T23:39:59.631Z,12.25
2022-10-17T23:48:23.514Z,12.21
2022-10-17T23:56:46.278Z,12.14
